createdAt,value
2023-03-17T00:00:20.058Z,100722.56
2023-03-17T00:02:47.971Z,100721.63
2023-03-17T00:05:17.392Z,100726.03
2023-03-17T00:07:45.299Z,100713.84
2023-03-17T00:10:18.485Z,100727.00
2023-03-17T00:12:46.356Z,100734.88
2023-03-17T00:15:14.910Z,100736.72
2023-03-17T00:17:43.353Z,100745.56
2023-03-17T00:20:22.955Z,100744.72
2023-03-17T00:22:51.100Z,100757.84
2023-03-17T00:25:22.074Z,100757.03
2023-03-17T00:27:50.253Z,100759.66
2023-03-17T00:30:18.105Z,100761.31
2023-03-17T00:32:46.677Z,100757.97
2023-03-17T00:35:18.458Z,100751.88
2023-03-17T00:37:46.755Z,100740.53
2023-03-17T00:40:18.967Z,100734.50
2023-03-17T00:42:47.975Z,100721.59
2023-03-17T00:45:15.870Z,100737.34
2023-03-17T00:47:43.601Z,100734.81
2023-03-17T00:50:12.302Z,100738.41
2023-03-17T00:52:40.641Z,100736.91
2023-03-17T00:55:08.994Z,100725.56
2023-03-17T00:57:36.716Z,100725.78
2023-03-17T01:00:06.260Z,100724.16
2023-03-17T01:02:33.800Z,100705.16
2023-03-17T01:05:06.213Z,100698.22
2023-03-17T01:07:35.082Z,100686.06
2023-03-17T01:10:02.581Z,100687.91
2023-03-17T01:12:30.154Z,100676.56
2023-03-17T01:14:58.048Z,100675.72
2023-03-17T01:17:26.905Z,100679.41
2023-03-17T01:19:54.437Z,100692.53
2023-03-17T01:22:21.910Z,100693.38
2023-03-17T01:24:49.353Z,100698.63
2023-03-17T01:27:17.529Z,100702.19
2023-03-17T01:29:45.025Z,100690.84
2023-03-17T01:32:12.902Z,100691.69
2023-03-17T01:34:41.758Z,100688.34
2023-03-17T01:37:09.637Z,100691.03
2023-03-17T01:39:37.116Z,100682.31
2023-03-17T01:42:05.800Z,100669.19
2023-03-17T01:44:33.442Z,100658.69
2023-03-17T01:47:01.658Z,100652.59
2023-03-17T01:49:30.330Z,100657.13
2023-03-17T01:52:01.009Z,100652.81
2023-03-17T01:54:30.695Z,100654.72
2023-03-17T01:56:58.577Z,100659.13
2023-03-17T01:59:27.139Z,100662.66
2023-03-17T02:01:56.605Z,100657.53
2023-03-17T02:04:24.128Z,100661.09
2023-03-17T02:06:57.917Z,100652.38
2023-03-17T02:09:27.455Z,100654.28
2023-03-17T02:11:55.594Z,100659.53
2023-03-17T02:14:23.705Z,100649.97
2023-03-17T02:16:51.306Z,100647.34
2023-03-17T02:19:18.852Z,100643.94
2023-03-17T02:21:48.056Z,100649.19
2023-03-17T02:24:20.680Z,100643.22
2023-03-17T02:26:48.853Z,100640.59
2023-03-17T02:29:16.686Z,100633.66
2023-03-17T02:31:45.350Z,100636.28
2023-03-17T02:34:12.817Z,100637.25
2023-03-17T02:36:40.663Z,100631.16
2023-03-17T02:39:09.634Z,100631.25
2023-03-17T02:41:37.273Z,100622.53
2023-03-17T02:44:04.917Z,100631.25
2023-03-17T02:46:32.613Z,100628.63
2023-03-17T02:49:00.796Z,100633.13
2023-03-17T02:51:28.347Z,100632.16
2023-03-17T02:53:55.951Z,100627.88
2023-03-17T02:56:25.146Z,100625.34
2023-03-17T02:58:52.619Z,100634.06
2023-03-17T03:01:21.171Z,100639.31
2023-03-17T03:03:48.713Z,100630.72
2023-03-17T03:06:16.842Z,100627.13
2023-03-17T03:08:44.367Z,100627.13
2023-03-17T03:11:12.109Z,100629.75
2023-03-17T03:13:41.388Z,100623.56
2023-03-17T03:16:09.127Z,100614.00
2023-03-17T03:18:37.138Z,100618.31
2023-03-17T03:21:04.868Z,100617.47
2023-03-17T03:23:32.456Z,100613.06
2023-03-17T03:25:59.925Z,100615.81
2023-03-17T03:28:27.387Z,100614.97
2023-03-17T03:30:56.245Z,100615.91
2023-03-17T03:33:23.828Z,100611.50
2023-03-17T03:35:51.400Z,100614.13
2023-03-17T03:38:19.232Z,100614.97
2023-03-17T03:40:46.819Z,100611.38
2023-03-17T03:43:23.001Z,100612.34
2023-03-17T03:45:51.802Z,100611.38
2023-03-17T03:48:20.742Z,100612.22
2023-03-17T03:50:48.256Z,100608.66
2023-03-17T03:53:15.746Z,100607.81
2023-03-17T03:55:43.315Z,100614.75
2023-03-17T03:58:11.383Z,100605.94
2023-03-17T04:00:38.877Z,100605.94
2023-03-17T04:03:06.547Z,100610.25
2023-03-17T04:05:35.418Z,100619.81
2023-03-17T04:08:02.907Z,100611.94
2023-03-17T04:10:31.887Z,100604.81
2023-03-17T04:12:59.541Z,100604.81
2023-03-17T04:15:27.166Z,100607.44
2023-03-17T04:17:55.698Z,100601.22
2023-03-17T04:20:23.332Z,100607.22
2023-03-17T04:22:52.499Z,100611.53
2023-03-17T04:25:20.095Z,100599.34
2023-03-17T04:27:47.674Z,100593.91
2023-03-17T04:30:16.804Z,100596.53
2023-03-17T04:32:44.786Z,100598.31
2023-03-17T04:35:13.331Z,100599.25
2023-03-17T04:37:41.098Z,100597.47
2023-03-17T04:40:10.952Z,100600.09
2023-03-17T04:42:38.637Z,100594.84
2023-03-17T04:45:06.694Z,100605.34
2023-03-17T04:47:34.200Z,100600.09
2023-03-17T04:50:01.891Z,100601.88
2023-03-17T04:52:29.692Z,100620.34
2023-03-17T04:54:57.198Z,100626.53
2023-03-17T04:57:26.070Z,100630.09
2023-03-17T04:59:53.620Z,100628.41
2023-03-17T05:02:21.144Z,100622.44
2023-03-17T05:04:48.850Z,100623.38
2023-03-17T05:07:16.405Z,100629.56
2023-03-17T05:09:43.952Z,100627.13
2023-03-17T05:12:11.662Z,100630.72
2023-03-17T05:14:40.530Z,100623.03
2023-03-17T05:17:08.123Z,100620.59
2023-03-17T05:19:35.571Z,100625.00
2023-03-17T05:22:03.086Z,100614.72
2023-03-17T05:24:30.572Z,100616.50
2023-03-17T05:26:58.133Z,100618.38
2023-03-17T05:29:25.615Z,100620.25
2023-03-17T05:31:54.530Z,100615.97
2023-03-17T05:34:22.041Z,100619.53
2023-03-17T05:36:50.487Z,100624.88
2023-03-17T05:39:18.049Z,100635.38
2023-03-17T05:41:45.607Z,100624.94
2023-03-17T05:44:13.465Z,100619.72
2023-03-17T05:46:41.135Z,100624.94
2023-03-17T05:49:10.101Z,100625.78
2023-03-17T05:51:37.597Z,100621.50
2023-03-17T05:54:05.093Z,100611.84
2023-03-17T05:56:33.764Z,100617.09
2023-03-17T05:59:01.799Z,100618.78
2023-03-17T06:01:29.421Z,100617.00
2023-03-17T06:03:56.921Z,100613.44
2023-03-17T06:06:25.872Z,100615.13
2023-03-17T06:08:53.434Z,100607.16
2023-03-17T06:11:21.564Z,100610.50
2023-03-17T06:13:49.193Z,100612.19
2023-03-17T06:16:16.765Z,100608.63
2023-03-17T06:18:44.567Z,100605.91
2023-03-17T06:21:12.093Z,100598.78
2023-03-17T06:23:40.994Z,100604.75
2023-03-17T06:26:09.662Z,100609.94
2023-03-17T06:28:37.163Z,100607.19
2023-03-17T06:31:07.142Z,100608.88
2023-03-17T06:33:35.315Z,100612.22
2023-03-17T06:36:03.215Z,100606.88
2023-03-17T06:38:30.731Z,100608.47
2023-03-17T06:40:59.584Z,100599.56
2023-03-17T06:43:27.472Z,100600.28
2023-03-17T06:45:55.090Z,100600.19
2023-03-17T06:48:23.447Z,100600.94
2023-03-17T06:50:51.312Z,100604.19
2023-03-17T06:53:18.820Z,100611.03
2023-03-17T06:55:46.402Z,100598.75
2023-03-17T06:58:15.889Z,100602.09
2023-03-17T07:00:45.484Z,100607.25
2023-03-17T07:03:13.044Z,100610.72
2023-03-17T07:05:40.764Z,100613.22
2023-03-17T07:08:08.714Z,100615.78
2023-03-17T07:10:36.676Z,100612.09
2023-03-17T07:13:06.014Z,100612.72
2023-03-17T07:15:35.837Z,100607.28
2023-03-17T07:18:03.482Z,100607.06
2023-03-17T07:20:31.114Z,100599.00
2023-03-17T07:22:58.984Z,100601.41
2023-03-17T07:25:26.439Z,100599.50
2023-03-17T07:27:54.071Z,100605.31
2023-03-17T07:30:21.675Z,100605.81
2023-03-17T07:32:50.552Z,100607.06
2023-03-17T07:35:19.197Z,100597.09
2023-03-17T07:37:47.309Z,100593.22
2023-03-17T07:40:15.028Z,100595.31
2023-03-17T07:42:42.614Z,100591.44
2023-03-17T07:45:10.416Z,100594.44
2023-03-17T07:47:37.932Z,100592.25
2023-03-17T07:50:07.288Z,100588.38
2023-03-17T07:52:35.335Z,100587.13
2023-03-17T07:55:03.098Z,100592.03
2023-03-17T07:57:30.650Z,100596.97
2023-03-17T07:59:58.711Z,100599.31
2023-03-17T08:02:26.359Z,100611.16
2023-03-17T08:04:54.638Z,100619.56
2023-03-17T08:07:23.549Z,100613.13
2023-03-17T08:09:51.194Z,100617.94
2023-03-17T08:12:18.800Z,100607.81
2023-03-17T08:14:46.371Z,100608.22
2023-03-17T08:17:13.906Z,100611.97
2023-03-17T08:19:42.400Z,100612.38
2023-03-17T08:22:09.908Z,100601.41
2023-03-17T08:24:39.661Z,100612.34
2023-03-17T08:27:07.886Z,100613.56
2023-03-17T08:29:35.928Z,100607.81
2023-03-17T08:32:03.609Z,100612.75
2023-03-17T08:34:31.453Z,100598.31
2023-03-17T08:36:58.946Z,100598.78
2023-03-17T08:39:26.619Z,100600.25
2023-03-17T08:41:55.671Z,100600.75
2023-03-17T08:44:23.168Z,100596.81
2023-03-17T08:46:51.405Z,100591.31
2023-03-17T08:49:19.053Z,100581.25
2023-03-17T08:51:46.544Z,100580.78
2023-03-17T08:54:14.074Z,100569.78
2023-03-17T08:56:41.900Z,100569.09
2023-03-17T08:59:10.945Z,100576.41
2023-03-17T09:01:39.913Z,100576.91
2023-03-17T09:04:07.653Z,100571.03
2023-03-17T09:06:35.146Z,100562.75
2023-03-17T09:09:02.600Z,100574.53
2023-03-17T09:11:31.530Z,100579.31
2023-03-17T09:13:59.164Z,100585.78
2023-03-17T09:16:28.695Z,100598.25
2023-03-17T09:18:56.530Z,100607.97
2023-03-17T09:21:24.048Z,100608.06
2023-03-17T09:23:51.589Z,100599.41
2023-03-17T09:26:20.081Z,100582.13
2023-03-17T09:28:47.539Z,100584.28
2023-03-17T09:31:15.207Z,100578.50
2023-03-17T09:33:44.076Z,100574.50
2023-03-17T09:36:12.042Z,100583.03
2023-03-17T09:38:39.637Z,100578.31
2023-03-17T09:41:13.006Z,100584.09
2023-03-17T09:43:41.529Z,100572.19
2023-03-17T09:46:11.248Z,100576.09
2023-03-17T09:48:52.708Z,100576.44
2023-03-17T09:51:20.434Z,100582.66
2023-03-17T09:53:50.139Z,100585.50
2023-03-17T09:56:17.861Z,100585.69
2023-03-17T09:58:48.526Z,100582.28
2023-03-17T10:01:17.705Z,100588.13
2023-03-17T10:03:45.255Z,100605.41
2023-03-17T10:06:32.206Z,100607.56
2023-03-17T10:09:02.338Z,100607.16
2023-03-17T10:11:33.390Z,100603.56
2023-03-17T10:14:01.954Z,100600.66
2023-03-17T10:16:32.196Z,100597.75
2023-03-17T10:19:00.573Z,100605.03
2023-03-17T10:21:28.492Z,100598.94
2023-03-17T10:23:57.393Z,100593.47
2023-03-17T10:26:28.679Z,100580.16
2023-03-17T10:28:56.215Z,100581.56
2023-03-17T10:31:28.114Z,100589.97
2023-03-17T10:33:55.691Z,100590.88
2023-03-17T10:36:34.679Z,100593.91
2023-03-17T10:39:02.448Z,100578.75
2023-03-17T10:41:31.307Z,100591.72
2023-03-17T10:43:59.386Z,100579.84
2023-03-17T10:46:29.871Z,100588.00
2023-03-17T10:48:58.228Z,100575.84
2023-03-17T10:51:30.653Z,100585.88
2023-03-17T10:53:58.862Z,100577.81
2023-03-17T10:56:27.518Z,100578.63
2023-03-17T10:58:56.943Z,100577.81
2023-03-17T11:01:27.046Z,100583.09
2023-03-17T11:03:54.645Z,100570.00
2023-03-17T11:06:27.012Z,100572.78
2023-03-17T11:08:55.390Z,100574.75
2023-03-17T11:11:24.087Z,100582.84
2023-03-17T11:13:51.772Z,100577.66
2023-03-17T11:16:23.092Z,100575.16
2023-03-17T11:18:51.859Z,100580.19
2023-03-17T11:21:19.946Z,100573.63
2023-03-17T11:23:49.066Z,100567.78
2023-03-17T11:26:22.951Z,100577.84
2023-03-17T11:28:51.258Z,100573.69
2023-03-17T11:31:23.116Z,100576.59
2023-03-17T11:33:53.297Z,100572.53
2023-03-17T11:36:25.017Z,100563.50
2023-03-17T11:38:55.531Z,100574.22
2023-03-17T11:41:35.716Z,100570.72
2023-03-17T11:44:24.412Z,100578.53
2023-03-17T11:46:53.494Z,100574.78
2023-03-17T11:49:22.836Z,100575.47
2023-03-17T11:51:53.484Z,100569.03
2023-03-17T11:54:24.677Z,100571.44
2023-03-17T11:56:52.749Z,100567.50
2023-03-17T11:59:25.824Z,100567.09
2023-03-17T12:01:56.934Z,100571.00
2023-03-17T12:04:26.497Z,100567.75
2023-03-17T12:06:57.724Z,100563.56
2023-03-17T12:09:26.686Z,100565.50
2023-03-17T12:11:54.217Z,100569.13
2023-03-17T12:14:24.680Z,100573.56
2023-03-17T12:16:53.490Z,100580.78
2023-03-17T12:19:23.126Z,100582.72
2023-03-17T12:21:52.502Z,100575.53
2023-03-17T12:24:20.840Z,100575.97
2023-03-17T12:26:50.693Z,100570.03
2023-03-17T12:29:20.504Z,100570.88
2023-03-17T12:31:49.470Z,100572.78
2023-03-17T12:34:20.396Z,100567.19
2023-03-17T12:36:49.830Z,100541.78
2023-03-17T12:39:17.681Z,100538.44
2023-03-17T12:41:56.846Z,100529.09
2023-03-17T12:44:27.895Z,100536.47
2023-03-17T12:47:10.404Z,100540.88
2023-03-17T12:49:45.092Z,100535.38
2023-03-17T12:52:16.791Z,100523.91
2023-03-17T12:54:45.824Z,100521.72
2023-03-17T12:57:14.452Z,100520.94
2023-03-17T12:59:42.816Z,100520.47
2023-03-17T13:02:15.382Z,100512.72
2023-03-17T13:04:48.774Z,100517.59
2023-03-17T13:07:18.190Z,100519.09
2023-03-17T13:09:47.625Z,100526.63
2023-03-17T13:12:33.702Z,100539.25
2023-03-17T13:15:01.284Z,100524.16
2023-03-17T13:17:32.733Z,100519.66
2023-03-17T13:20:10.923Z,100536.00
2023-03-17T13:22:40.266Z,100524.75
2023-03-17T13:25:15.712Z,100522.78
2023-03-17T13:27:44.403Z,100528.78
2023-03-17T13:30:33.237Z,100522.16
2023-03-17T13:33:04.063Z,100520.19
2023-03-17T13:35:39.037Z,100514.84
2023-03-17T13:38:21.713Z,100521.50
2023-03-17T13:41:04.165Z,100519.28
2023-03-17T13:43:46.517Z,100519.88
2023-03-17T13:46:22.245Z,100525.69
2023-03-17T13:48:49.957Z,100525.13
2023-03-17T13:51:20.624Z,100515.97
2023-03-17T13:53:49.008Z,100505.63
2023-03-17T13:56:19.030Z,100507.47
2023-03-17T13:59:13.493Z,100507.63
2023-03-17T14:01:43.749Z,100498.97
2023-03-17T14:04:17.972Z,100499.28
2023-03-17T14:06:45.498Z,100505.41
2023-03-17T14:09:18.486Z,100504.91
2023-03-17T14:11:46.909Z,100503.59
2023-03-17T14:14:31.651Z,100498.28
2023-03-17T14:17:02.254Z,100497.59
2023-03-17T14:19:31.124Z,100500.59
2023-03-17T14:22:04.177Z,100507.19
2023-03-17T14:24:32.260Z,100501.34
2023-03-17T14:27:04.359Z,100493.84
2023-03-17T14:29:32.137Z,100496.94
2023-03-17T14:32:02.973Z,100493.94
2023-03-17T14:34:30.511Z,100496.75
2023-03-17T14:36:59.627Z,100488.38
2023-03-17T14:39:27.090Z,100483.38
2023-03-17T14:42:04.004Z,100483.69
2023-03-17T14:44:38.042Z,100485.66
2023-03-17T14:47:07.357Z,100480.50
2023-03-17T14:49:34.889Z,100480.63
2023-03-17T14:52:02.656Z,100479.97
2023-03-17T14:54:31.587Z,100469.66
2023-03-17T14:57:02.238Z,100474.28
2023-03-17T14:59:30.937Z,100474.41
2023-03-17T15:01:58.973Z,100482.69
2023-03-17T15:04:28.301Z,100479.50
2023-03-17T15:06:56.208Z,100477.97
2023-03-17T15:09:26.215Z,100481.78
2023-03-17T15:11:54.757Z,100481.22
2023-03-17T15:14:23.066Z,100470.09
2023-03-17T15:16:51.395Z,100471.38
2023-03-17T15:19:20.430Z,100465.38
2023-03-17T15:21:49.425Z,100459.41
2023-03-17T15:24:24.786Z,100458.84
2023-03-17T15:26:52.304Z,100460.00
2023-03-17T15:29:19.805Z,100467.25
2023-03-17T15:31:47.400Z,100465.84
2023-03-17T15:34:15.345Z,100473.16
2023-03-17T15:36:43.545Z,100471.63
2023-03-17T15:39:12.725Z,100471.75
2023-03-17T15:41:40.301Z,100468.44
2023-03-17T15:44:07.815Z,100465.94
2023-03-17T15:46:35.280Z,100467.75
2023-03-17T15:49:02.747Z,100470.56
2023-03-17T15:51:30.365Z,100465.41
2023-03-17T15:53:57.870Z,100462.03
2023-03-17T15:56:26.960Z,100469.31
2023-03-17T15:58:54.465Z,100473.78
2023-03-17T16:01:22.058Z,100463.50
2023-03-17T16:03:49.589Z,100460.97
2023-03-17T16:06:17.822Z,100452.31
2023-03-17T16:08:45.420Z,100456.78
2023-03-17T16:11:17.769Z,100453.47
2023-03-17T16:13:46.792Z,100456.28
2023-03-17T16:16:19.464Z,100454.72
2023-03-17T16:18:47.609Z,100467.16
2023-03-17T16:21:15.066Z,100463.66
2023-03-17T16:23:42.623Z,100450.72
2023-03-17T16:26:15.864Z,100449.06
2023-03-17T16:28:44.535Z,100453.66
2023-03-17T16:31:21.182Z,100455.78
2023-03-17T16:33:48.778Z,100459.53
2023-03-17T16:36:17.189Z,100461.50
2023-03-17T16:38:44.784Z,100464.31
2023-03-17T16:41:16.786Z,100458.31
2023-03-17T16:43:44.616Z,100457.63
2023-03-17T16:46:12.653Z,100459.59
2023-03-17T16:48:41.534Z,100466.03
2023-03-17T16:51:09.177Z,100471.47
2023-03-17T16:53:37.026Z,100468.09
2023-03-17T16:56:04.510Z,100472.06
2023-03-17T16:58:32.706Z,100474.84
2023-03-17T17:01:01.296Z,100477.63
2023-03-17T17:03:29.177Z,100476.09
2023-03-17T17:05:58.059Z,100471.94
2023-03-17T17:08:25.628Z,100470.38
2023-03-17T17:10:53.198Z,100476.00
2023-03-17T17:13:20.792Z,100474.47
2023-03-17T17:15:48.431Z,100487.88
2023-03-17T17:18:17.054Z,100493.59
2023-03-17T17:20:45.204Z,100499.19
2023-03-17T17:23:14.614Z,100502.25
2023-03-17T17:25:42.358Z,100495.56
2023-03-17T17:29:32.479Z,100490.84
2023-03-17T17:32:00.128Z,100487.63
2023-03-17T17:34:27.647Z,100484.44
2023-03-17T17:36:55.267Z,100490.16
2023-03-17T17:39:22.741Z,100491.28
2023-03-17T17:41:50.294Z,100492.50
2023-03-17T17:44:17.768Z,100485.81
2023-03-17T17:46:46.718Z,100487.91
2023-03-17T17:49:14.238Z,100491.81
2023-03-17T17:51:41.799Z,100493.75
2023-03-17T17:54:10.161Z,100492.38
2023-03-17T17:56:40.129Z,100496.97
2023-03-17T17:59:08.104Z,100500.88
2023-03-17T18:01:35.598Z,100501.16
2023-03-17T18:04:04.474Z,100505.88
2023-03-17T18:06:31.995Z,100502.69
2023-03-17T18:09:00.050Z,100497.78
2023-03-17T18:11:27.627Z,100490.00
2023-03-17T18:13:55.102Z,100503.53
2023-03-17T18:16:22.637Z,100491.38
2023-03-17T18:18:50.206Z,100494.16
2023-03-17T18:21:19.132Z,100486.53
2023-03-17T18:23:48.699Z,100483.16
2023-03-17T18:26:16.637Z,100483.28
2023-03-17T18:28:44.202Z,100487.06
2023-03-17T18:31:14.330Z,100481.06
2023-03-17T18:33:41.933Z,100483.00
2023-03-17T18:36:09.772Z,100484.13
2023-03-17T18:38:38.810Z,100485.25
2023-03-17T18:41:06.957Z,100478.28
2023-03-17T18:43:34.511Z,100483.97
2023-03-17T18:46:02.010Z,100484.13
2023-03-17T18:48:29.467Z,100482.44
2023-03-17T18:50:56.978Z,100487.84
2023-03-17T18:53:24.790Z,100486.31
2023-03-17T18:55:53.663Z,100486.59
2023-03-17T18:58:21.115Z,100483.22
2023-03-17T19:00:49.615Z,100483.53
2023-03-17T19:03:17.339Z,100492.44
2023-03-17T19:05:44.920Z,100492.69
2023-03-17T19:08:13.879Z,100493.66
2023-03-17T19:10:43.336Z,100493.66
2023-03-17T19:13:12.208Z,100494.63
2023-03-17T19:15:40.382Z,100492.97
2023-03-17T19:18:07.897Z,100503.53
2023-03-17T19:20:36.291Z,100505.22
2023-03-17T19:23:04.721Z,100501.47
2023-03-17T19:25:32.309Z,100501.34
2023-03-17T19:28:00.146Z,100499.38
2023-03-17T19:30:29.170Z,100493.13
2023-03-17T19:32:56.795Z,100494.66
2023-03-17T19:35:24.333Z,100500.66
2023-03-17T19:37:52.264Z,100489.94
2023-03-17T19:40:19.767Z,100493.28
2023-03-17T19:42:47.251Z,100490.63
2023-03-17T19:45:14.905Z,100484.38
2023-03-17T19:47:43.716Z,100485.09
2023-03-17T19:50:11.824Z,100473.53
2023-03-17T19:52:39.364Z,100487.44
2023-03-17T19:55:08.419Z,100486.47
2023-03-17T19:57:36.492Z,100479.50
2023-03-17T20:00:04.123Z,100478.53
2023-03-17T20:02:31.562Z,100484.94
2023-03-17T20:05:00.473Z,100481.47
2023-03-17T20:07:28.003Z,100484.94
2023-03-17T20:09:55.717Z,100486.63
2023-03-17T20:12:23.322Z,100491.22
2023-03-17T20:14:51.062Z,100486.03
2023-03-17T20:17:18.705Z,100494.94
2023-03-17T20:19:46.239Z,100491.59
2023-03-17T20:22:15.150Z,100492.72
2023-03-17T20:24:42.604Z,100503.44
2023-03-17T20:27:11.239Z,100493.81
2023-03-17T20:29:38.762Z,100495.75
2023-03-17T20:32:06.346Z,100497.72
2023-03-17T20:34:34.702Z,100494.38
2023-03-17T20:37:02.850Z,100499.91
2023-03-17T20:39:32.433Z,100507.16
2023-03-17T20:42:01.551Z,100502.16
2023-03-17T20:44:29.009Z,100505.88
2023-03-17T20:46:56.646Z,100504.34
2023-03-17T20:49:24.141Z,100511.59
2023-03-17T20:51:51.636Z,100510.84
2023-03-17T20:54:19.071Z,100513.66
2023-03-17T20:56:52.359Z,100505.84
2023-03-17T20:59:19.863Z,100504.19
2023-03-17T21:01:47.537Z,100508.78
2023-03-17T21:04:15.998Z,100517.66
2023-03-17T21:06:43.612Z,100509.03
2023-03-17T21:09:11.083Z,100515.28
2023-03-17T21:11:38.752Z,100518.06
2023-03-17T21:14:07.996Z,100519.88
2023-03-17T21:16:35.901Z,100522.53
2023-03-17T21:19:06.082Z,100521.78
2023-03-17T21:21:34.419Z,100527.06
2023-03-17T21:24:02.728Z,100521.78
2023-03-17T21:26:30.295Z,100528.78
2023-03-17T21:28:57.851Z,100534.06
2023-03-17T21:31:27.469Z,100527.81
2023-03-17T21:33:55.521Z,100525.16
2023-03-17T21:36:23.021Z,100536.56
2023-03-17T21:38:50.581Z,100533.09
2023-03-17T21:41:24.678Z,100534.63
2023-03-17T21:43:52.131Z,100527.53
2023-03-17T21:46:19.601Z,100530.16
2023-03-17T21:48:48.618Z,100524.75
2023-03-17T21:51:16.088Z,100537.97
2023-03-17T21:53:43.495Z,100542.16
2023-03-17T21:56:12.552Z,100535.22
2023-03-17T21:58:40.191Z,100537.84
2023-03-17T22:01:07.832Z,100536.16
2023-03-17T22:03:36.549Z,100539.63
2023-03-17T22:06:06.280Z,100533.50
2023-03-17T22:08:34.654Z,100531.69
2023-03-17T22:11:02.306Z,100536.16
2023-03-17T22:13:29.785Z,100531.59
2023-03-17T22:15:59.358Z,100535.22
2023-03-17T22:18:27.053Z,100543.97
2023-03-17T22:20:54.546Z,100546.63
2023-03-17T22:23:23.743Z,100548.44
2023-03-17T22:25:51.333Z,100554.56
2023-03-17T22:28:19.192Z,100553.72
2023-03-17T22:30:46.846Z,100549.38
2023-03-17T22:33:14.386Z,100552.03
2023-03-17T22:35:42.067Z,100549.50
2023-03-17T22:38:09.914Z,100558.28
2023-03-17T22:40:38.830Z,100546.88
2023-03-17T22:43:07.248Z,100558.41
2023-03-17T22:45:34.737Z,100557.59
2023-03-17T22:48:02.327Z,100559.38
2023-03-17T22:50:30.270Z,100549.94
2023-03-17T22:52:57.966Z,100550.88
2023-03-17T22:55:25.482Z,100542.09
2023-03-17T22:57:54.317Z,100546.56
2023-03-17T23:00:22.023Z,100548.38
2023-03-17T23:02:49.549Z,100546.56
2023-03-17T23:05:17.206Z,100545.72
2023-03-17T23:07:51.988Z,100544.88
2023-03-17T23:10:22.074Z,100550.16
2023-03-17T23:12:49.715Z,100546.69
2023-03-17T23:15:19.687Z,100543.22
2023-03-17T23:17:47.464Z,100548.50
2023-03-17T23:20:15.447Z,100551.16
2023-03-17T23:22:42.932Z,100545.84
2023-03-17T23:25:10.906Z,100551.16
2023-03-17T23:27:38.539Z,100545.84
2023-03-17T23:30:06.670Z,100557.41
2023-03-17T23:32:35.837Z,100551.28
2023-03-17T23:35:03.601Z,100561.03
2023-03-17T23:37:31.096Z,100571.59
2023-03-17T23:39:58.560Z,100575.22
2023-03-17T23:42:26.156Z,100574.38
2023-03-17T23:44:53.700Z,100577.00
2023-03-17T23:47:22.452Z,100572.66
2023-03-17T23:49:51.327Z,100577.13
2023-03-17T23:52:18.844Z,100586.75
2023-03-17T23:54:46.523Z,100580.72
2023-03-17T23:57:14.282Z,100594.78
2023-03-17T23:59:41.787Z,100592.97
